Sunday, July 22, 2018, 12:28 AM EDT
Back to Local

KGNR, Greenville

Location: Greenville, ME, United States Lat: 45.467
Local Time: 12:28 AM EDT ( 4:28 GMT) Lon: -69.583
Time Zone: US/Eastern Elev: 1400 ft

Show me the last for .
Show Decoded

2018-07-21 22:56 METAR KGNR 220256Z AUTO 15004KT 18/13 A3017 RMK AO1 SLP215 T01780128 53006 =
2018-07-21 21:56 METAR KGNR 220156Z AUTO 13006KT 19/12 A3016 RMK AO1 SLP211 T01940122 =
2018-07-21 20:56 METAR KGNR 220056Z AUTO 00000KT 19/13 A3016 RMK AO1 SLP210 T01940128 =
2018-07-21 19:56 METAR KGNR 212356Z AUTO 00000KT 22/12 A3015 RMK AO1 SLP208 T02170122 10261 20217
                 53002 =
2018-07-21 18:56 METAR KGNR 212256Z AUTO VRB03KT 24/12 A3015 RMK AO1 SLP205 T02390117 =
2018-07-21 17:56 METAR KGNR 212156Z AUTO VRB03KT 25/11 A3014 RMK AO1 SLP203 T02500111 =
2018-07-21 16:56 METAR KGNR 212056Z AUTO VRB03KT 26/12 A3015 RMK AO1 SLP206 T02560117 56006 =
2018-07-21 15:56 METAR KGNR 211956Z AUTO 13008KT 110V180 26/11 A3015 RMK AO1 SLP207 T02560111 =
2018-07-21 14:56 METAR KGNR 211856Z AUTO 15006KT 26/11 A3016 RMK AO1 SLP209 T02560111 =
2018-07-21 13:56 METAR KGNR 211756Z AUTO 12007KT 24/12 A3016 RMK AO1 SLP212 T02440117 10250 20183
                 58009 =
2018-07-21 12:56 METAR KGNR 211656Z AUTO 13007KT 100V190 24/09 A3017 RMK AO1 SLP214 T02440094 =
2018-07-21 11:56 METAR KGNR 211556Z AUTO 11007KT 23/11 A3019 RMK AO1 SLP220 T02280106 =
2018-07-21 10:56 METAR KGNR 211456Z AUTO 13006KT 22/12 A3019 RMK AO1 SLP221 T02220117 58001 =
2018-07-21 09:56 METAR KGNR 211356Z AUTO VRB03KT 22/12 A3019 RMK AO1 SLP221 T02170122 =
2018-07-21 08:56 METAR KGNR 211256Z AUTO 00000KT 20/12 A3020 RMK AO1 SLP224 T02000122 =
2018-07-21 07:56 METAR KGNR 211156Z AUTO 13003KT 18/12 A3020 RMK AO1 SLP222 T01830122 10183 20133
                 53004 =
2018-07-21 06:56 METAR KGNR 211056Z AUTO 13004KT 17/13 A3019 RMK AO1 SLP222 T01670133 =
2018-07-21 05:56 METAR KGNR 210956Z AUTO 13005KT 14/13 A3018 RMK AO1 SLP216 T01440128 =
2018-07-21 04:56 METAR KGNR 210856Z AUTO 12004KT 14/12 A3018 RMK AO1 SLP217 T01390122 53001 =
2018-07-21 03:56 METAR KGNR 210756Z AUTO 13006KT 15/13 A3018 RMK AO1 SLP215 T01500128 =
2018-07-21 02:56 METAR KGNR 210656Z AUTO 13004KT 16/13 A3017 RMK AO1 SLP215 T01560128 =
2018-07-21 01:56 METAR KGNR 210556Z AUTO 12003KT 15/13 A3018 RMK AO1 SLP216 T01500128 10233 20150
                 55002 =
2018-07-21 00:56 METAR KGNR 210456Z AUTO 00000KT 16/13 A3017 RMK AO1 SLP214 T01610133 402720133 =

Support USWX by starting your Amazon purchase here.